Time;durP1;ratioP1;P1;durP2;ratioP2;P2;SDS_P1;SDS_P2;PMS_P1;PMS_P2;Temp;Humidity;BMP_temperature;BMP_pressure;BME280_temperature;BME280_humidity;BME280_pressure;Samples;Min_cycle;Max_cycle;Signal;HPM_P1;HPM_P2
2020/12/29 00:01:44;;;;;;;18.17;11.63;;;;;;;;;;5083682;28;20219;-75
2020/12/29 00:04:11;;;;;;;16.23;11.77;;;;;;;;;;5088303;28;20187;-72
2020/12/29 00:06:50;;;;;;;15.70;11.15;;;;;;;;;;5088581;28;20212;-75
2020/12/29 00:09:18;;;;;;;13.60;11.75;;;;;;;;;;5080313;28;20313;-74
2020/12/29 00:11:44;;;;;;;16.25;11.65;;;;;;;;;;5072841;28;20199;-74
2020/12/29 00:14:11;;;;;;;13.73;10.50;;;;;;;;;;5091530;28;20268;-75
2020/12/29 00:16:37;;;;;;;15.70;10.85;;;;;;;;;;5087376;28;20178;-72
2020/12/29 00:19:04;;;;;;;16.75;12.40;;;;;;;;;;5079116;28;20217;-72
2020/12/29 00:21:30;;;;;;;13.20;10.23;;;;;;;;;;5095971;28;20529;-71
2020/12/29 00:23:56;;;;;;;16.15;11.93;;;;;;;;;;5095535;28;20175;-72
2020/12/29 00:26:25;;;;;;;14.23;10.18;;;;;;;;;;5095620;28;20187;-73
2020/12/29 00:28:51;;;;;;;14.32;10.88;;;;;;;;;;5093211;28;20198;-73
2020/12/29 00:31:18;;;;;;;13.25;10.15;;;;;;;;;;5079519;28;20187;-72
2020/12/29 00:33:44;;;;;;;13.27;11.10;;;;;;;;;;5095338;28;20176;-70
2020/12/29 00:36:10;;;;;;;11.55;9.90;;;;;;;;;;5095704;28;20163;-72
2020/12/29 00:38:37;;;;;;;13.15;10.32;;;;;;;;;;5095409;28;20190;-71
2020/12/29 00:41:05;;;;;;;12.20;9.85;;;;;;;;;;5086441;28;20234;-72
2020/12/29 00:43:31;;;;;;;12.68;10.10;;;;;;;;;;5090391;28;20179;-74
2020/12/29 00:45:57;;;;;;;12.18;9.18;;;;;;;;;;5095601;28;20226;-74
2020/12/29 00:48:23;;;;;;;10.70;9.23;;;;;;;;;;5095827;28;20203;-72
2020/12/29 00:50:50;;;;;;;13.02;10.45;;;;;;;;;;5095607;28;20198;-71
2020/12/29 00:53:16;;;;;;;12.95;9.13;;;;;;;;;;5094368;28;20180;-71
2020/12/29 00:55:42;;;;;;;14.77;10.77;;;;;;;;;;5089962;28;20183;-73
2020/12/29 00:58:08;;;;;;;12.43;10.02;;;;;;;;;;5086700;28;20648;-73
2020/12/29 01:00:34;;;;;;;11.00;9.50;;;;;;;;;;5077719;28;20202;-72
2020/12/29 01:03:00;;;;;;;11.35;8.93;;;;;;;;;;5092457;28;20183;-73
2020/12/29 01:05:26;;;;;;;11.70;8.63;;;;;;;;;;5091970;28;20180;-71
2020/12/29 01:07:52;;;;;;;9.75;8.63;;;;;;;;;;5094830;28;20199;-73
2020/12/29 01:10:18;;;;;;;11.15;9.10;;;;;;;;;;5103320;28;20194;-73
2020/12/29 01:12:44;;;;;;;12.10;9.95;;;;;;;;;;5090850;28;20167;-73
2020/12/29 01:15:10;;;;;;;13.95;10.73;;;;;;;;;;5094569;28;20184;-71
2020/12/29 01:17:36;;;;;;;11.57;9.82;;;;;;;;;;5086021;28;20179;-72
2020/12/29 01:20:02;;;;;;;10.57;8.48;;;;;;;;;;5092054;28;20602;-73
2020/12/29 01:22:28;;;;;;;10.88;8.90;;;;;;;;;;5075109;28;20180;-72
2020/12/29 01:24:54;;;;;;;12.30;9.23;;;;;;;;;;5075873;28;20180;-72
2020/12/29 01:27:20;;;;;;;11.73;9.30;;;;;;;;;;5092214;28;20175;-70
2020/12/29 01:29:46;;;;;;;12.27;9.68;;;;;;;;;;5092409;28;20211;-71
2020/12/29 01:32:13;;;;;;;12.73;9.98;;;;;;;;;;5090871;28;20240;-73
2020/12/29 01:34:39;;;;;;;11.85;9.65;;;;;;;;;;5085671;28;20183;-72
2020/12/29 01:37:05;;;;;;;13.38;10.35;;;;;;;;;;5077308;28;20509;-71
2020/12/29 01:39:31;;;;;;;13.45;9.52;;;;;;;;;;5079042;28;20203;-71
2020/12/29 01:41:57;;;;;;;12.00;9.73;;;;;;;;;;5082321;28;20183;-72
2020/12/29 01:44:23;;;;;;;12.18;9.95;;;;;;;;;;5092498;28;20262;-72
2020/12/29 01:46:50;;;;;;;14.48;10.60;;;;;;;;;;5093794;28;20529;-71
2020/12/29 01:49:17;;;;;;;13.45;10.30;;;;;;;;;;5084449;28;20203;-73
2020/12/29 01:51:43;;;;;;;13.63;10.43;;;;;;;;;;5074022;28;20306;-72
2020/12/29 01:54:09;;;;;;;13.10;9.93;;;;;;;;;;5092543;28;20186;-75
2020/12/29 01:56:39;;;;;;;14.43;10.73;;;;;;;;;;5093737;28;20183;-73
2020/12/29 01:59:09;;;;;;;11.27;9.25;;;;;;;;;;5094007;28;20176;-75
2020/12/29 02:01:41;;;;;;;14.52;10.52;;;;;;;;;;5089521;28;20206;-73
2020/12/29 02:04:08;;;;;;;13.45;10.93;;;;;;;;;;5089958;28;20222;-74
2020/12/29 02:06:35;;;;;;;13.60;10.90;;;;;;;;;;5094102;28;20180;-73
2020/12/29 02:09:01;;;;;;;14.15;10.90;;;;;;;;;;5088705;28;20204;-74
2020/12/29 02:11:27;;;;;;;14.23;10.40;;;;;;;;;;5092831;28;20584;-73
2020/12/29 02:13:53;;;;;;;15.13;11.15;;;;;;;;;;5082851;28;20182;-72
2020/12/29 02:16:20;;;;;;;14.65;10.95;;;;;;;;;;5080253;28;20174;-72
2020/12/29 02:18:46;;;;;;;14.48;11.00;;;;;;;;;;5093249;28;20175;-73
2020/12/29 02:21:12;;;;;;;14.43;11.60;;;;;;;;;;5076415;28;20200;-72
2020/12/29 02:23:38;;;;;;;13.60;11.00;;;;;;;;;;5073248;28;20282;-72
2020/12/29 02:26:04;;;;;;;14.60;11.20;;;;;;;;;;5075236;28;20187;-74
2020/12/29 02:28:30;;;;;;;15.23;11.45;;;;;;;;;;5091520;28;20664;-72
2020/12/29 02:30:56;;;;;;;15.07;11.90;;;;;;;;;;5092671;28;20197;-74
2020/12/29 02:33:22;;;;;;;13.00;10.88;;;;;;;;;;5092910;28;20193;-72
2020/12/29 02:35:48;;;;;;;14.70;11.10;;;;;;;;;;5078827;28;20529;-73
2020/12/29 02:38:14;;;;;;;14.75;11.32;;;;;;;;;;5089696;28;20265;-73
2020/12/29 02:40:40;;;;;;;13.15;11.30;;;;;;;;;;5078575;28;20207;-73
2020/12/29 02:43:07;;;;;;;15.23;11.23;;;;;;;;;;5073404;28;20176;-74
2020/12/29 02:45:33;;;;;;;14.48;11.60;;;;;;;;;;5091879;28;20184;-72
2020/12/29 02:47:59;;;;;;;14.23;11.23;;;;;;;;;;5092639;28;20226;-73
2020/12/29 02:50:29;;;;;;;14.18;11.60;;;;;;;;;;5078675;28;20192;-73
2020/12/29 02:52:55;;;;;;;16.77;12.02;;;;;;;;;;5076948;28;20529;-73
2020/12/29 02:55:21;;;;;;;15.40;12.07;;;;;;;;;;5093240;28;20255;-73
2020/12/29 02:57:47;;;;;;;16.33;12.38;;;;;;;;;;5093252;28;20187;-71
2020/12/29 03:00:14;;;;;;;14.48;11.20;;;;;;;;;;5091550;28;20281;-73
2020/12/29 03:02:40;;;;;;;15.43;11.25;;;;;;;;;;5091401;28;20186;-73
2020/12/29 03:05:06;;;;;;;15.50;12.32;;;;;;;;;;5077676;28;20172;-72
2020/12/29 03:07:32;;;;;;;14.10;11.90;;;;;;;;;;5074310;28;20258;-73
2020/12/29 03:09:58;;;;;;;16.23;11.98;;;;;;;;;;5089675;28;20187;-72
2020/12/29 03:12:24;;;;;;;12.60;10.60;;;;;;;;;;5093074;28;20179;-74
2020/12/29 03:14:50;;;;;;;16.02;12.63;;;;;;;;;;5091062;28;20218;-72
2020/12/29 03:17:16;;;;;;;15.25;12.23;;;;;;;;;;5079877;28;20520;-74
2020/12/29 03:19:42;;;;;;;16.50;12.70;;;;;;;;;;5088322;28;20592;-75
2020/12/29 03:22:08;;;;;;;15.55;12.68;;;;;;;;;;5092981;28;20659;-73
2020/12/29 03:24:34;;;;;;;13.98;12.10;;;;;;;;;;5092014;28;20346;-74
2020/12/29 03:27:00;;;;;;;14.55;12.13;;;;;;;;;;5092673;28;20176;-72
2020/12/29 03:29:26;;;;;;;15.20;12.43;;;;;;;;;;5089768;28;20203;-74
2020/12/29 03:31:52;;;;;;;12.80;11.18;;;;;;;;;;5081976;28;20233;-74
2020/12/29 03:34:25;;;;;;;13.57;11.20;;;;;;;;;;5072365;28;20187;-72
2020/12/29 03:36:51;;;;;;;15.13;11.90;;;;;;;;;;5082040;28;20171;-73
2020/12/29 03:39:18;;;;;;;14.55;11.32;;;;;;;;;;5075137;28;20184;-73
2020/12/29 03:41:44;;;;;;;13.85;11.88;;;;;;;;;;5072551;28;20182;-71
2020/12/29 03:44:10;;;;;;;14.88;11.93;;;;;;;;;;5076395;28;20168;-72
2020/12/29 03:46:36;;;;;;;16.08;11.82;;;;;;;;;;5092620;28;20168;-74
2020/12/29 03:49:02;;;;;;;13.07;11.35;;;;;;;;;;5090265;28;20532;-73
2020/12/29 03:51:28;;;;;;;15.32;11.30;;;;;;;;;;5084145;28;20200;-72
2020/12/29 03:53:54;;;;;;;14.85;12.00;;;;;;;;;;5075868;28;20168;-73
2020/12/29 03:56:20;;;;;;;14.95;12.20;;;;;;;;;;5083008;28;20180;-74
2020/12/29 03:58:47;;;;;;;13.55;11.27;;;;;;;;;;5078356;28;20184;-72
2020/12/29 04:01:13;;;;;;;13.25;11.70;;;;;;;;;;5078463;28;20677;-74
2020/12/29 04:03:42;;;;;;;15.43;12.60;;;;;;;;;;5089000;28;20176;-74
2020/12/29 04:06:08;;;;;;;15.00;12.93;;;;;;;;;;5078184;28;20623;-72
2020/12/29 04:08:34;;;;;;;18.05;14.05;;;;;;;;;;5096136;28;20533;-75
2020/12/29 04:11:00;;;;;;;16.95;13.27;;;;;;;;;;5083617;28;20617;-74
2020/12/29 04:13:26;;;;;;;18.40;14.25;;;;;;;;;;5086526;28;20502;-71
2020/12/29 04:15:52;;;;;;;16.35;13.30;;;;;;;;;;5086802;28;20510;-73
2020/12/29 04:18:18;;;;;;;18.35;12.90;;;;;;;;;;5084014;28;20262;-71
2020/12/29 04:20:44;;;;;;;14.07;12.38;;;;;;;;;;5079769;28;20545;-73
2020/12/29 04:23:10;;;;;;;15.32;12.27;;;;;;;;;;5082392;28;20528;-71
2020/12/29 04:25:36;;;;;;;15.82;12.38;;;;;;;;;;5079915;28;20180;-72
2020/12/29 04:28:02;;;;;;;15.05;11.55;;;;;;;;;;5095425;28;20505;-70
2020/12/29 04:30:28;;;;;;;16.02;12.10;;;;;;;;;;5091400;28;20219;-73
2020/12/29 04:32:54;;;;;;;14.88;12.20;;;;;;;;;;5095960;28;20175;-72
2020/12/29 04:35:20;;;;;;;14.93;11.27;;;;;;;;;;5095016;28;20179;-74
2020/12/29 04:37:46;;;;;;;14.07;12.10;;;;;;;;;;5095611;28;20179;-73
2020/12/29 04:40:12;;;;;;;15.23;11.05;;;;;;;;;;5079289;28;20268;-72
2020/12/29 04:42:38;;;;;;;14.27;11.75;;;;;;;;;;5084323;28;20190;-72
2020/12/29 04:45:05;;;;;;;13.70;11.82;;;;;;;;;;5095380;28;20176;-71
2020/12/29 04:47:31;;;;;;;16.80;12.15;;;;;;;;;;5093676;28;20186;-74
2020/12/29 04:49:58;;;;;;;17.58;12.55;;;;;;;;;;5082202;28;20685;-74
2020/12/29 04:52:24;;;;;;;16.55;13.25;;;;;;;;;;5086970;28;20222;-74
2020/12/29 04:54:54;;;;;;;15.63;12.65;;;;;;;;;;5074836;28;20629;-71
2020/12/29 04:57:21;;;;;;;15.23;11.85;;;;;;;;;;5085257;28;20195;-74
2020/12/29 04:59:47;;;;;;;20.70;13.63;;;;;;;;;;5075038;28;20192;-71
2020/12/29 05:02:13;;;;;;;17.13;12.20;;;;;;;;;;5087550;28;20585;-71
2020/12/29 05:04:39;;;;;;;18.50;13.50;;;;;;;;;;5079932;28;20176;-72
2020/12/29 05:07:05;;;;;;;18.88;12.65;;;;;;;;;;5075389;28;20192;-73
2020/12/29 05:09:32;;;;;;;18.25;12.60;;;;;;;;;;5088794;28;20286;-71
2020/12/29 05:11:58;;;;;;;19.40;13.18;;;;;;;;;;5095078;28;20176;-73
2020/12/29 05:14:26;;;;;;;16.90;12.85;;;;;;;;;;5079670;28;20176;-74
2020/12/29 05:16:52;;;;;;;16.35;12.35;;;;;;;;;;5081023;28;20212;-72
2020/12/29 05:19:20;;;;;;;19.95;13.90;;;;;;;;;;5092982;28;20632;-73
2020/12/29 05:21:46;;;;;;;15.90;11.60;;;;;;;;;;5083370;28;20179;-74
2020/12/29 05:24:16;;;;;;;17.02;12.32;;;;;;;;;;5078918;28;20187;-71
2020/12/29 05:26:43;;;;;;;16.25;12.90;;;;;;;;;;5085741;28;20241;-73
2020/12/29 05:29:13;;;;;;;15.30;12.00;;;;;;;;;;5091802;28;20203;-72
2020/12/29 05:31:41;;;;;;;17.65;12.82;;;;;;;;;;5085801;28;20191;-72
2020/12/29 05:34:07;;;;;;;18.98;12.63;;;;;;;;;;5092321;28;20183;-73
2020/12/29 05:36:37;;;;;;;17.10;12.45;;;;;;;;;;5094628;28;20174;-74
2020/12/29 05:39:05;;;;;;;18.92;13.60;;;;;;;;;;5076341;28;20241;-71
2020/12/29 05:41:36;;;;;;;17.23;12.82;;;;;;;;;;5081027;28;20204;-73
2020/12/29 05:44:03;;;;;;;19.13;13.32;;;;;;;;;;5073879;28;20187;-73
2020/12/29 05:46:30;;;;;;;20.10;13.25;;;;;;;;;;5091284;28;20186;-71
2020/12/29 05:48:57;;;;;;;18.45;12.80;;;;;;;;;;5081115;28;20286;-71
2020/12/29 05:51:24;;;;;;;17.95;12.88;;;;;;;;;;5089883;28;20202;-72
2020/12/29 05:53:51;;;;;;;17.75;12.70;;;;;;;;;;5074137;28;20172;-74
2020/12/29 05:56:19;;;;;;;17.45;12.52;;;;;;;;;;5082506;28;20183;-74
2020/12/29 05:58:45;;;;;;;16.63;12.68;;;;;;;;;;5094275;28;20172;-72
2020/12/29 06:01:11;;;;;;;18.35;13.27;;;;;;;;;;5086846;28;20696;-72
2020/12/29 06:03:38;;;;;;;16.42;12.57;;;;;;;;;;5073496;28;20188;-73
2020/12/29 06:06:07;;;;;;;19.95;13.90;;;;;;;;;;5076939;28;20179;-72
2020/12/29 06:08:35;;;;;;;18.80;13.57;;;;;;;;;;5073877;28;20637;-73
2020/12/29 06:11:05;;;;;;;19.00;13.45;;;;;;;;;;5087264;28;20722;-73
2020/12/29 06:13:36;;;;;;;22.15;14.25;;;;;;;;;;5092928;28;20178;-73
2020/12/29 06:16:03;;;;;;;21.70;13.45;;;;;;;;;;5089966;28;20247;-74
2020/12/29 06:18:34;;;;;;;18.60;13.77;;;;;;;;;;5090591;28;20210;-72
2020/12/29 06:21:04;;;;;;;21.95;14.30;;;;;;;;;;5088834;28;20691;-72
2020/12/29 06:23:30;;;;;;;17.67;12.95;;;;;;;;;;5073393;28;20188;-72
2020/12/29 06:25:58;;;;;;;22.02;14.45;;;;;;;;;;5077939;28;20175;-74
2020/12/29 06:28:27;;;;;;;22.35;14.10;;;;;;;;;;5093768;28;20191;-73
2020/12/29 06:30:57;;;;;;;24.27;15.27;;;;;;;;;;5079541;28;20282;-74
2020/12/29 06:33:23;;;;;;;21.98;15.15;;;;;;;;;;5093445;28;20207;-72
2020/12/29 06:35:50;;;;;;;20.17;13.98;;;;;;;;;;5084122;28;20536;-71
2020/12/29 06:38:20;;;;;;;21.58;14.65;;;;;;;;;;5093287;28;20183;-72
2020/12/29 06:40:47;;;;;;;23.42;14.10;;;;;;;;;;5077294;28;20203;-71
2020/12/29 06:43:13;;;;;;;20.25;13.82;;;;;;;;;;5073031;28;20172;-73
2020/12/29 06:45:39;;;;;;;25.13;15.20;;;;;;;;;;5082226;28;20270;-72
2020/12/29 06:48:21;;;;;;;18.08;13.55;;;;;;;;;;5088901;28;20224;-72
2020/12/29 06:50:48;;;;;;;21.20;14.05;;;;;;;;;;5072771;28;20204;-74
2020/12/29 06:53:15;;;;;;;19.63;14.85;;;;;;;;;;5073032;28;20169;-73
2020/12/29 06:55:46;;;;;;;23.30;14.98;;;;;;;;;;5075981;28;20175;-72
2020/12/29 06:58:14;;;;;;;21.17;14.40;;;;;;;;;;5075218;28;20654;-71
2020/12/29 07:00:40;;;;;;;22.02;15.60;;;;;;;;;;5092789;28;20218;-73
2020/12/29 07:03:06;;;;;;;23.08;15.35;;;;;;;;;;5088379;28;20179;-72
2020/12/29 07:05:38;;;;;;;24.90;17.63;;;;;;;;;;5087013;28;20551;-73
2020/12/29 07:08:05;;;;;;;17.95;13.63;;;;;;;;;;5087974;28;20203;-74
2020/12/29 07:10:41;;;;;;;21.80;13.88;;;;;;;;;;5093795;28;20191;-73
2020/12/29 07:13:08;;;;;;;23.30;14.55;;;;;;;;;;5079002;28;20171;-71
2020/12/29 07:16:03;;;;;;;22.58;15.60;;;;;;;;;;5079388;28;20167;-72
2020/12/29 07:18:30;;;;;;;20.25;14.25;;;;;;;;;;5080289;28;20188;-74
2020/12/29 07:20:56;;;;;;;22.70;13.95;;;;;;;;;;5072582;28;20278;-76
2020/12/29 07:23:25;;;;;;;23.65;15.15;;;;;;;;;;5071294;28;20592;-72
2020/12/29 07:25:52;;;;;;;23.52;15.02;;;;;;;;;;5086581;28;20225;-75
2020/12/29 07:28:19;;;;;;;26.35;16.08;;;;;;;;;;5083142;28;20191;-73
2020/12/29 07:30:45;;;;;;;22.88;15.57;;;;;;;;;;5091120;28;20187;-73
2020/12/29 07:33:11;;;;;;;27.15;16.90;;;;;;;;;;5088677;28;20179;-75
2020/12/29 07:35:38;;;;;;;27.38;16.70;;;;;;;;;;5096540;28;20167;-71
2020/12/29 07:38:23;;;;;;;25.48;15.80;;;;;;;;;;5096854;28;20211;-74
2020/12/29 07:40:49;;;;;;;31.67;18.35;;;;;;;;;;5094671;28;20207;-71
2020/12/29 07:43:16;;;;;;;31.40;19.85;;;;;;;;;;5076396;28;20168;-75
2020/12/29 07:45:42;;;;;;;34.78;22.40;;;;;;;;;;5082571;28;20528;-71
2020/12/29 07:48:08;;;;;;;28.15;17.55;;;;;;;;;;5096506;28;20213;-73
2020/12/29 07:50:35;;;;;;;30.65;18.50;;;;;;;;;;5086804;28;20256;-71
2020/12/29 07:53:06;;;;;;;26.77;16.65;;;;;;;;;;5078830;28;20180;-72
2020/12/29 07:55:33;;;;;;;26.55;16.98;;;;;;;;;;5088007;28;20257;-73
2020/12/29 07:58:03;;;;;;;29.83;18.30;;;;;;;;;;5078962;28;20188;-72
2020/12/29 08:00:29;;;;;;;29.38;17.95;;;;;;;;;;5087765;28;20191;-73
2020/12/29 08:02:56;;;;;;;26.98;19.23;;;;;;;;;;5080768;28;20670;-72
2020/12/29 08:05:26;;;;;;;23.08;15.43;;;;;;;;;;5071768;28;20905;-74
2020/12/29 08:07:59;;;;;;;24.63;16.48;;;;;;;;;;5087864;28;20220;-74
2020/12/29 08:10:26;;;;;;;27.67;17.38;;;;;;;;;;5093004;28;20260;-74
2020/12/29 08:12:53;;;;;;;27.75;18.13;;;;;;;;;;5092197;28;20179;-74
2020/12/29 08:15:25;;;;;;;26.95;17.35;;;;;;;;;;5092042;28;20183;-74
2020/12/29 08:18:01;;;;;;;26.73;16.77;;;;;;;;;;5088779;28;20183;-74
2020/12/29 08:20:27;;;;;;;26.30;17.83;;;;;;;;;;5092313;28;20309;-75
2020/12/29 08:22:53;;;;;;;26.25;18.52;;;;;;;;;;5092039;28;20278;-74
2020/12/29 08:25:19;;;;;;;32.00;19.75;;;;;;;;;;5084072;28;20270;-74
2020/12/29 08:27:46;;;;;;;28.08;17.60;;;;;;;;;;5077855;28;20231;-73
2020/12/29 08:30:12;;;;;;;26.90;16.70;;;;;;;;;;5074932;28;20252;-74
2020/12/29 08:32:39;;;;;;;22.92;15.68;;;;;;;;;;5091675;28;20180;-74
2020/12/29 08:35:06;;;;;;;25.85;16.50;;;;;;;;;;5090526;28;20179;-74
2020/12/29 08:37:34;;;;;;;25.50;16.65;;;;;;;;;;5091035;28;20182;-72
2020/12/29 08:40:00;;;;;;;27.02;17.15;;;;;;;;;;5091601;28;20202;-72
2020/12/29 08:42:27;;;;;;;27.08;17.52;;;;;;;;;;5090828;28;20640;-74
2020/12/29 08:44:57;;;;;;;27.13;17.95;;;;;;;;;;5085327;28;20179;-75
2020/12/29 08:47:29;;;;;;;27.42;18.50;;;;;;;;;;5091419;28;20712;-72
2020/12/29 08:49:55;;;;;;;40.08;21.48;;;;;;;;;;5090381;28;20256;-73
2020/12/29 08:52:31;;;;;;;29.70;18.65;;;;;;;;;;5091367;28;20601;-74
2020/12/29 08:54:57;;;;;;;30.88;19.73;;;;;;;;;;5083377;28;20171;-74
2020/12/29 08:57:27;;;;;;;35.75;22.80;;;;;;;;;;5091068;28;20178;-74
2020/12/29 08:59:53;;;;;;;35.80;24.55;;;;;;;;;;5089722;28;20208;-72
2020/12/29 09:02:28;;;;;;;33.45;23.00;;;;;;;;;;5091163;28;20200;-75
2020/12/29 09:05:00;;;;;;;36.25;23.50;;;;;;;;;;5088800;28;20183;-73
2020/12/29 09:07:29;;;;;;;36.88;24.13;;;;;;;;;;5090495;28;20553;-75
2020/12/29 09:09:55;;;;;;;37.70;25.15;;;;;;;;;;5092599;28;20216;-75
2020/12/29 09:12:31;;;;;;;33.92;23.30;;;;;;;;;;5091062;28;20180;-75
2020/12/29 09:15:01;;;;;;;30.48;21.73;;;;;;;;;;5090298;28;20179;-73
2020/12/29 09:17:34;;;;;;;34.30;22.75;;;;;;;;;;5070858;28;20172;-73
2020/12/29 09:20:09;;;;;;;34.65;22.35;;;;;;;;;;5081592;28;20886;-74
2020/12/29 09:22:35;;;;;;;39.50;24.75;;;;;;;;;;5091022;28;20264;-74
2020/12/29 09:25:01;;;;;;;34.15;23.27;;;;;;;;;;5086824;28;20176;-73
2020/12/29 09:27:28;;;;;;;34.28;22.00;;;;;;;;;;5070605;28;20180;-73
2020/12/29 09:29:54;;;;;;;30.10;22.00;;;;;;;;;;5084162;28;20546;-72
2020/12/29 09:32:20;;;;;;;30.60;22.45;;;;;;;;;;5084396;28;20191;-74
2020/12/29 09:34:47;;;;;;;28.27;21.08;;;;;;;;;;5086014;28;20295;-73
2020/12/29 09:37:13;;;;;;;27.90;20.52;;;;;;;;;;5088899;28;20176;-73
2020/12/29 09:39:39;;;;;;;28.10;19.55;;;;;;;;;;5090236;28;20225;-74
2020/12/29 09:42:05;;;;;;;28.10;21.77;;;;;;;;;;5089407;28;20183;-73
2020/12/29 09:44:31;;;;;;;29.08;20.98;;;;;;;;;;5087703;28;20202;-74
2020/12/29 09:46:57;;;;;;;28.55;20.85;;;;;;;;;;5085158;28;20237;-73
2020/12/29 09:49:23;;;;;;;27.45;20.73;;;;;;;;;;5089731;28;20203;-72
2020/12/29 09:51:55;;;;;;;31.00;21.55;;;;;;;;;;5079170;28;20356;-74
2020/12/29 09:54:21;;;;;;;27.70;20.55;;;;;;;;;;5076034;28;20184;-73
2020/12/29 09:56:47;;;;;;;27.55;20.92;;;;;;;;;;5090526;28;20171;-73
2020/12/29 09:59:14;;;;;;;26.75;20.02;;;;;;;;;;5088253;28;20834;-73
2020/12/29 10:01:40;;;;;;;24.52;19.17;;;;;;;;;;5088556;28;20199;-75
2020/12/29 10:04:06;;;;;;;24.20;19.02;;;;;;;;;;5082872;28;20227;-73
2020/12/29 10:06:32;;;;;;;24.90;19.38;;;;;;;;;;5089968;28;20183;-74
2020/12/29 10:08:58;;;;;;;28.85;20.70;;;;;;;;;;5088809;28;20202;-74
2020/12/29 10:11:27;;;;;;;23.65;18.90;;;;;;;;;;5076124;28;20191;-72
2020/12/29 10:13:53;;;;;;;22.83;17.75;;;;;;;;;;5069362;28;20834;-73
2020/12/29 10:16:19;;;;;;;23.02;18.25;;;;;;;;;;5080740;28;20182;-72
2020/12/29 10:18:45;;;;;;;23.15;17.95;;;;;;;;;;5082717;28;20188;-73
2020/12/29 10:21:11;;;;;;;22.45;18.70;;;;;;;;;;5085560;28;20203;-73
2020/12/29 10:23:37;;;;;;;23.52;17.60;;;;;;;;;;5073909;28;20206;-73
2020/12/29 10:26:03;;;;;;;20.90;16.85;;;;;;;;;;5085702;28;20193;-73
2020/12/29 10:28:30;;;;;;;39.38;24.02;;;;;;;;;;5088688;28;20200;-73
2020/12/29 10:30:57;;;;;;;24.20;17.98;;;;;;;;;;5088104;28;20281;-74
2020/12/29 10:33:23;;;;;;;22.05;16.73;;;;;;;;;;5089439;28;20222;-74
2020/12/29 10:35:49;;;;;;;23.75;17.80;;;;;;;;;;5089110;28;20915;-73
2020/12/29 10:38:15;;;;;;;22.33;16.80;;;;;;;;;;5089149;28;20180;-72
2020/12/29 10:40:41;;;;;;;19.08;16.02;;;;;;;;;;5089647;28;20196;-73
2020/12/29 10:43:07;;;;;;;22.38;15.70;;;;;;;;;;5089211;28;20704;-74
2020/12/29 10:45:33;;;;;;;21.40;16.55;;;;;;;;;;5088619;28;20183;-74
2020/12/29 10:47:59;;;;;;;18.63;15.30;;;;;;;;;;5088761;28;20217;-74
2020/12/29 10:50:25;;;;;;;19.30;15.73;;;;;;;;;;5087502;28;20737;-73
2020/12/29 10:52:51;;;;;;;20.75;16.63;;;;;;;;;;5089129;28;20198;-74
2020/12/29 10:55:18;;;;;;;20.45;15.30;;;;;;;;;;5085192;28;20262;-73
2020/12/29 10:57:44;;;;;;;17.65;14.63;;;;;;;;;;5086486;28;20184;-72
2020/12/29 11:00:10;;;;;;;25.25;17.00;;;;;;;;;;5074793;28;20569;-73
2020/12/29 11:02:36;;;;;;;17.05;14.30;;;;;;;;;;5083645;28;20179;-72
2020/12/29 11:05:02;;;;;;;17.40;13.43;;;;;;;;;;5088460;28;20348;-72
2020/12/29 11:07:28;;;;;;;16.42;13.80;;;;;;;;;;5088415;28;20552;-72
2020/12/29 11:09:55;;;;;;;14.80;12.48;;;;;;;;;;5090400;28;20228;-72
2020/12/29 11:12:21;;;;;;;18.08;13.68;;;;;;;;;;5079931;28;20198;-72
2020/12/29 11:14:47;;;;;;;16.63;13.27;;;;;;;;;;5081284;28;20525;-73
2020/12/29 11:17:13;;;;;;;16.65;13.68;;;;;;;;;;5081552;28;20186;-72
2020/12/29 11:19:39;;;;;;;14.88;12.50;;;;;;;;;;5089092;28;20195;-73
2020/12/29 11:22:05;;;;;;;15.13;12.40;;;;;;;;;;5089477;28;20180;-75
2020/12/29 11:24:31;;;;;;;16.55;13.18;;;;;;;;;;5079315;28;20245;-74
2020/12/29 11:26:57;;;;;;;14.48;12.70;;;;;;;;;;5067596;28;20893;-73
2020/12/29 11:29:23;;;;;;;16.33;13.55;;;;;;;;;;5082660;28;20701;-74
2020/12/29 11:31:49;;;;;;;15.95;13.50;;;;;;;;;;5085850;28;20652;-74
2020/12/29 11:34:15;;;;;;;17.63;14.13;;;;;;;;;;5085839;28;20510;-75
2020/12/29 11:36:41;;;;;;;22.48;14.10;;;;;;;;;;5089028;28;20776;-75
2020/12/29 11:39:07;;;;;;;17.10;13.95;;;;;;;;;;5086985;28;20494;-74
2020/12/29 11:41:33;;;;;;;15.68;13.15;;;;;;;;;;5086070;28;20207;-74
2020/12/29 11:44:00;;;;;;;17.25;13.73;;;;;;;;;;5068289;28;20210;-73
2020/12/29 11:46:26;;;;;;;18.80;14.73;;;;;;;;;;5076922;28;20180;-74
2020/12/29 11:48:52;;;;;;;17.10;12.40;;;;;;;;;;5083993;28;20213;-74
2020/12/29 11:51:18;;;;;;;16.52;13.00;;;;;;;;;;5085818;28;20206;-75
2020/12/29 11:53:44;;;;;;;15.55;12.27;;;;;;;;;;5076583;28;20705;-74
2020/12/29 11:56:11;;;;;;;13.88;12.32;;;;;;;;;;5086793;28;20541;-74
2020/12/29 11:58:37;;;;;;;17.50;12.77;;;;;;;;;;5088404;28;20194;-73
2020/12/29 12:01:04;;;;;;;15.13;12.05;;;;;;;;;;5085428;28;20223;-73
2020/12/29 12:03:30;;;;;;;12.35;11.07;;;;;;;;;;5085302;28;20193;-73
2020/12/29 12:05:56;;;;;;;14.00;12.50;;;;;;;;;;5088279;28;20289;-73
2020/12/29 12:08:22;;;;;;;13.95;12.27;;;;;;;;;;5088426;28;20207;-73
2020/12/29 12:10:48;;;;;;;14.00;12.23;;;;;;;;;;5075453;28;20226;-73
2020/12/29 12:13:14;;;;;;;15.30;12.02;;;;;;;;;;5089043;28;20236;-75
2020/12/29 12:15:40;;;;;;;13.63;12.23;;;;;;;;;;5087717;28;20237;-73
2020/12/29 12:18:06;;;;;;;14.65;13.02;;;;;;;;;;5092194;28;20200;-76
2020/12/29 12:20:32;;;;;;;15.63;12.18;;;;;;;;;;5092025;28;20684;-72
2020/12/29 12:22:58;;;;;;;14.15;12.07;;;;;;;;;;5090263;28;20206;-74
2020/12/29 12:25:24;;;;;;;13.48;11.20;;;;;;;;;;5090470;28;20195;-74
2020/12/29 12:27:50;;;;;;;13.52;11.98;;;;;;;;;;5081938;28;20180;-73
2020/12/29 12:30:16;;;;;;;16.92;12.35;;;;;;;;;;5078074;28;20202;-72
2020/12/29 12:32:42;;;;;;;16.75;12.88;;;;;;;;;;5079579;28;20187;-73
2020/12/29 12:35:08;;;;;;;15.95;11.48;;;;;;;;;;5078885;28;20200;-73
2020/12/29 12:37:34;;;;;;;14.38;12.25;;;;;;;;;;5077485;28;20179;-73
2020/12/29 12:40:00;;;;;;;15.25;12.82;;;;;;;;;;5091414;28;20198;-73
2020/12/29 12:42:26;;;;;;;16.35;12.60;;;;;;;;;;5077117;28;20183;-73
2020/12/29 12:44:52;;;;;;;18.13;13.48;;;;;;;;;;5078615;28;20176;-75
2020/12/29 12:47:18;;;;;;;16.52;13.40;;;;;;;;;;5088234;28;20182;-73
2020/12/29 12:49:44;;;;;;;17.45;14.57;;;;;;;;;;5078590;28;20204;-73
2020/12/29 12:52:10;;;;;;;14.95;12.50;;;;;;;;;;5072997;28;20179;-73
2020/12/29 12:54:36;;;;;;;17.05;13.45;;;;;;;;;;5091334;28;20179;-74
2020/12/29 12:57:02;;;;;;;14.93;12.35;;;;;;;;;;5087922;28;20176;-75
2020/12/29 12:59:29;;;;;;;15.93;13.35;;;;;;;;;;5071209;28;20172;-73
2020/12/29 13:01:55;;;;;;;17.02;14.80;;;;;;;;;;5082758;28;20179;-74
2020/12/29 13:04:22;;;;;;;15.23;12.75;;;;;;;;;;5090106;28;20191;-73
2020/12/29 13:06:51;;;;;;;15.20;13.02;;;;;;;;;;5090857;28;20237;-73
2020/12/29 13:09:17;;;;;;;17.67;14.20;;;;;;;;;;5095237;28;20199;-73
2020/12/29 13:11:43;;;;;;;16.77;14.40;;;;;;;;;;5085981;28;20180;-72
2020/12/29 13:14:09;;;;;;;18.10;14.20;;;;;;;;;;5078835;28;20180;-73
2020/12/29 13:16:35;;;;;;;15.50;13.82;;;;;;;;;;5091180;28;20203;-73
2020/12/29 13:19:01;;;;;;;17.20;14.70;;;;;;;;;;5091490;28;20198;-74
2020/12/29 13:21:27;;;;;;;18.17;14.30;;;;;;;;;;5090501;28;20199;-74
2020/12/29 13:23:54;;;;;;;20.65;15.50;;;;;;;;;;5090639;28;20184;-73
2020/12/29 13:26:20;;;;;;;16.50;14.48;;;;;;;;;;5079959;28;20216;-73
2020/12/29 13:28:46;;;;;;;16.52;14.70;;;;;;;;;;5079701;28;20229;-74
2020/12/29 13:31:12;;;;;;;16.58;14.57;;;;;;;;;;5072842;28;20204;-73
2020/12/29 13:33:39;;;;;;;16.90;15.10;;;;;;;;;;5089758;28;20175;-74
2020/12/29 13:36:06;;;;;;;16.02;14.32;;;;;;;;;;5089791;28;20668;-73
2020/12/29 13:38:33;;;;;;;16.15;14.48;;;;;;;;;;5090726;28;20272;-75
2020/12/29 13:41:00;;;;;;;18.38;14.98;;;;;;;;;;5073637;28;20204;-73
2020/12/29 13:43:27;;;;;;;18.05;15.88;;;;;;;;;;5078803;28;20683;-74
2020/12/29 13:45:53;;;;;;;17.58;15.05;;;;;;;;;;5077887;28;20195;-74
2020/12/29 13:48:21;;;;;;;19.77;16.17;;;;;;;;;;5081509;28;20645;-73
2020/12/29 13:50:47;;;;;;;22.88;16.08;;;;;;;;;;5090231;28;20195;-74
2020/12/29 13:53:13;;;;;;;17.80;15.80;;;;;;;;;;5089338;28;20175;-74
2020/12/29 13:55:39;;;;;;;20.13;16.08;;;;;;;;;;5081172;28;20668;-73
2020/12/29 13:58:05;;;;;;;19.13;15.60;;;;;;;;;;5075527;28;20636;-74
2020/12/29 14:00:31;;;;;;;17.27;15.45;;;;;;;;;;5072155;28;20211;-75
2020/12/29 14:02:57;;;;;;;20.95;15.70;;;;;;;;;;5067855;28;20230;-75
2020/12/29 14:05:23;;;;;;;16.85;15.15;;;;;;;;;;5087577;28;20175;-72
2020/12/29 14:07:49;;;;;;;16.70;14.88;;;;;;;;;;5089601;28;20198;-75
2020/12/29 14:10:15;;;;;;;15.60;13.43;;;;;;;;;;5087701;28;20244;-75
2020/12/29 14:12:41;;;;;;;20.42;14.73;;;;;;;;;;5089690;28;20184;-74
2020/12/29 14:15:07;;;;;;;17.35;15.30;;;;;;;;;;5089627;28;20340;-73
2020/12/29 14:17:33;;;;;;;15.50;13.90;;;;;;;;;;5089688;28;20176;-74